Time;durP1;ratioP1;P1;durP2;ratioP2;P2;SDS_P1;SDS_P2;PMS_P1;PMS_P2;Temp;Humidity;BMP_temperature;BMP_pressure;BME280_temperature;BME280_humidity;BME280_pressure;Samples;Min_cycle;Max_cycle;Signal;HPM_P1;HPM_P2
2023/12/22 00:01:40;;;;;;;41.35;38.50;;;;;;;;;;4147438;28;20034;-66
2023/12/22 00:03:47;;;;;;;41.40;38.87;;;;;;;;;;4147687;28;20557;-67
2023/12/22 00:05:49;;;;;;;41.05;38.47;;;;;;;;;;4148046;28;20037;-66
2023/12/22 00:07:50;;;;;;;42.53;39.83;;;;;;;;;;4147861;28;20065;-66
2023/12/22 00:09:53;;;;;;;41.67;38.70;;;;;;;;;;4163729;28;20042;-67
2023/12/22 00:11:54;;;;;;;45.20;41.83;;;;;;;;;;4164444;28;20095;-67
2023/12/22 00:13:56;;;;;;;41.97;38.90;;;;;;;;;;4164305;28;20128;-66
2023/12/22 00:15:57;;;;;;;43.85;41.35;;;;;;;;;;4164214;28;20045;-67
2023/12/22 00:17:59;;;;;;;42.03;39.22;;;;;;;;;;4164107;28;20125;-67
2023/12/22 00:20:02;;;;;;;43.05;40.10;;;;;;;;;;4164118;28;20034;-66
2023/12/22 00:22:04;;;;;;;46.35;43.38;;;;;;;;;;4164358;28;20034;-67
2023/12/22 00:24:06;;;;;;;44.47;40.95;;;;;;;;;;4161066;28;20160;-67
2023/12/22 00:26:08;;;;;;;45.78;42.88;;;;;;;;;;4147657;28;20048;-67
2023/12/22 00:28:09;;;;;;;41.83;39.20;;;;;;;;;;4147923;28;20068;-67
2023/12/22 00:30:11;;;;;;;44.40;41.20;;;;;;;;;;4147656;28;20506;-67
2023/12/22 00:32:13;;;;;;;43.72;40.97;;;;;;;;;;4147738;28;20569;-66
2023/12/22 00:34:14;;;;;;;42.85;40.13;;;;;;;;;;4147657;28;20046;-66
2023/12/22 00:36:17;;;;;;;46.63;43.70;;;;;;;;;;4148872;28;20052;-66
2023/12/22 00:38:19;;;;;;;45.00;42.35;;;;;;;;;;4151025;28;20293;-67
2023/12/22 00:40:21;;;;;;;40.60;38.42;;;;;;;;;;4150744;28;20072;-66
2023/12/22 00:42:22;;;;;;;44.15;41.35;;;;;;;;;;4151274;28;20062;-67
2023/12/22 00:44:27;;;;;;;44.60;41.60;;;;;;;;;;4150760;28;20034;-67
2023/12/22 00:46:28;;;;;;;42.40;39.40;;;;;;;;;;4150303;28;20077;-67
2023/12/22 00:48:30;;;;;;;46.30;43.23;;;;;;;;;;4149499;28;20133;-66
2023/12/22 00:50:32;;;;;;;39.72;37.42;;;;;;;;;;4149172;28;20046;-66
2023/12/22 00:52:34;;;;;;;43.58;40.72;;;;;;;;;;4149919;28;20591;-66
2023/12/22 00:54:35;;;;;;;38.83;36.38;;;;;;;;;;4150253;28;20046;-66
2023/12/22 00:56:37;;;;;;;42.50;40.00;;;;;;;;;;4150135;28;20065;-66
2023/12/22 00:58:39;;;;;;;43.85;40.97;;;;;;;;;;4150444;28;20609;-66
2023/12/22 01:00:40;;;;;;;41.03;38.10;;;;;;;;;;4150066;28;20075;-66
2023/12/22 01:02:42;;;;;;;40.97;38.73;;;;;;;;;;4150350;28;20061;-67
2023/12/22 01:04:44;;;;;;;45.10;42.33;;;;;;;;;;4150320;28;20405;-67
2023/12/22 01:06:46;;;;;;;42.25;39.30;;;;;;;;;;4150222;28;20037;-67
2023/12/22 01:08:49;;;;;;;39.60;37.13;;;;;;;;;;4157820;28;20033;-67
2023/12/22 01:10:51;;;;;;;42.30;39.90;;;;;;;;;;4149213;28;20049;-67
2023/12/22 01:12:53;;;;;;;39.72;37.10;;;;;;;;;;4166920;28;20045;-66
2023/12/22 01:14:55;;;;;;;42.80;40.13;;;;;;;;;;4166824;28;20132;-67
2023/12/22 01:16:59;;;;;;;39.13;36.42;;;;;;;;;;4166820;28;20516;-66
2023/12/22 01:19:00;;;;;;;42.10;39.25;;;;;;;;;;4166957;28;20065;-67
2023/12/22 01:21:02;;;;;;;43.88;40.97;;;;;;;;;;4158102;28;20046;-66
2023/12/22 01:23:04;;;;;;;43.77;40.90;;;;;;;;;;4150462;28;20041;-66
2023/12/22 01:25:06;;;;;;;43.20;41.05;;;;;;;;;;4150343;28;20042;-66
2023/12/22 01:27:07;;;;;;;40.70;38.53;;;;;;;;;;4150247;28;20517;-66
2023/12/22 01:29:09;;;;;;;42.13;39.65;;;;;;;;;;4150428;28;20125;-67
2023/12/22 01:31:11;;;;;;;41.95;39.58;;;;;;;;;;4150180;28;20406;-66
2023/12/22 01:33:12;;;;;;;42.70;39.28;;;;;;;;;;4150562;28;20486;-66
2023/12/22 01:35:14;;;;;;;43.23;41.03;;;;;;;;;;4150113;28;20410;-66
2023/12/22 01:37:16;;;;;;;42.58;39.60;;;;;;;;;;4150283;28;20350;-66
2023/12/22 01:39:17;;;;;;;42.13;39.70;;;;;;;;;;4150109;28;20074;-67
2023/12/22 01:41:19;;;;;;;42.95;40.45;;;;;;;;;;4149957;28;20034;-66
2023/12/22 01:43:21;;;;;;;42.05;39.50;;;;;;;;;;4150310;28;20437;-67
2023/12/22 01:45:23;;;;;;;42.63;40.05;;;;;;;;;;4149842;28;20034;-67
2023/12/22 01:47:25;;;;;;;43.88;41.40;;;;;;;;;;4149957;28;20095;-66
2023/12/22 01:49:27;;;;;;;40.53;38.27;;;;;;;;;;4149868;28;20038;-66
2023/12/22 01:51:29;;;;;;;41.47;38.88;;;;;;;;;;4147836;28;20033;-67
2023/12/22 01:53:31;;;;;;;39.97;37.78;;;;;;;;;;4151095;28;20547;-67
2023/12/22 01:55:33;;;;;;;43.50;40.95;;;;;;;;;;4149758;28;20096;-67
2023/12/22 01:57:35;;;;;;;40.13;37.80;;;;;;;;;;4148450;28;20053;-66
2023/12/22 01:59:37;;;;;;;41.47;39.13;;;;;;;;;;4149822;28;20049;-67
2023/12/22 02:01:39;;;;;;;41.22;38.58;;;;;;;;;;4149658;28;20042;-63
2023/12/22 02:03:40;;;;;;;40.83;38.72;;;;;;;;;;4142159;28;20057;-64
2023/12/22 02:05:43;;;;;;;44.50;41.92;;;;;;;;;;4133258;28;20121;-64
2023/12/22 02:07:45;;;;;;;42.38;39.92;;;;;;;;;;4133495;28;20116;-64
2023/12/22 02:09:47;;;;;;;38.75;36.40;;;;;;;;;;4163734;28;20536;-63
2023/12/22 02:11:49;;;;;;;43.60;40.78;;;;;;;;;;4158142;28;20042;-63
2023/12/22 02:13:50;;;;;;;42.67;40.00;;;;;;;;;;4149749;28;20494;-64
2023/12/22 02:15:56;;;;;;;42.10;39.63;;;;;;;;;;4149607;28;20381;-64
2023/12/22 02:18:02;;;;;;;43.42;40.53;;;;;;;;;;4149058;28;20030;-63
2023/12/22 02:20:04;;;;;;;44.65;41.70;;;;;;;;;;4149430;28;20092;-64
2023/12/22 02:22:07;;;;;;;39.40;36.97;;;;;;;;;;4149469;28;20042;-64
2023/12/22 02:24:10;;;;;;;42.97;40.58;;;;;;;;;;4149601;28;20045;-64
2023/12/22 02:26:24;;;;;;;38.95;36.78;;;;;;;;;;4149362;28;20053;-63
2023/12/22 02:28:25;;;;;;;42.15;39.80;;;;;;;;;;4149423;28;20551;-64
2023/12/22 02:30:46;;;;;;;40.77;38.40;;;;;;;;;;4149281;28;20038;-63
2023/12/22 02:32:49;;;;;;;37.90;35.90;;;;;;;;;;4149308;28;20063;-64
2023/12/22 02:34:52;;;;;;;40.22;38.08;;;;;;;;;;4149434;28;20101;-63
2023/12/22 02:36:54;;;;;;;41.55;39.20;;;;;;;;;;4149333;28;20133;-64
2023/12/22 02:38:56;;;;;;;40.13;37.67;;;;;;;;;;4149166;28;20049;-63
2023/12/22 02:40:58;;;;;;;42.55;39.75;;;;;;;;;;4148880;28;20038;-63
2023/12/22 02:43:01;;;;;;;39.75;36.90;;;;;;;;;;4149181;28;20077;-64
2023/12/22 02:45:04;;;;;;;39.85;37.83;;;;;;;;;;4148893;28;20069;-64
2023/12/22 02:47:05;;;;;;;43.22;40.72;;;;;;;;;;4148931;28;20053;-63
2023/12/22 02:49:07;;;;;;;42.35;39.92;;;;;;;;;;4145576;28;20052;-64
2023/12/22 02:51:08;;;;;;;39.13;36.92;;;;;;;;;;4145878;28;20159;-63
2023/12/22 02:53:10;;;;;;;39.33;36.80;;;;;;;;;;4153366;28;20383;-65
2023/12/22 02:55:12;;;;;;;43.67;41.13;;;;;;;;;;4148353;28;20088;-64
2023/12/22 02:57:13;;;;;;;42.15;39.45;;;;;;;;;;4148327;28;20097;-64
2023/12/22 02:59:15;;;;;;;38.92;36.90;;;;;;;;;;4147827;28;20050;-63
2023/12/22 03:01:17;;;;;;;43.22;40.30;;;;;;;;;;4139163;28;20527;-63
2023/12/22 03:03:18;;;;;;;43.50;40.55;;;;;;;;;;4148342;28;20053;-63
2023/12/22 03:05:20;;;;;;;39.37;36.90;;;;;;;;;;4149010;28;20096;-64
2023/12/22 03:07:22;;;;;;;41.97;39.35;;;;;;;;;;4131603;28;20053;-64
2023/12/22 03:09:23;;;;;;;41.88;39.25;;;;;;;;;;4149973;28;20441;-64
2023/12/22 03:11:25;;;;;;;40.95;38.45;;;;;;;;;;4148883;28;20053;-64
2023/12/22 03:13:26;;;;;;;43.25;40.30;;;;;;;;;;4148698;28;20042;-66
2023/12/22 03:15:28;;;;;;;41.87;39.37;;;;;;;;;;4131147;28;20042;-66
2023/12/22 03:17:30;;;;;;;42.38;39.63;;;;;;;;;;4148838;28;20072;-67
2023/12/22 03:19:32;;;;;;;42.25;39.97;;;;;;;;;;4148575;28;20042;-67
2023/12/22 03:21:34;;;;;;;41.25;38.80;;;;;;;;;;4148548;28;20042;-67
2023/12/22 03:23:35;;;;;;;36.42;34.40;;;;;;;;;;4148484;28;20100;-66
2023/12/22 03:25:37;;;;;;;39.58;37.50;;;;;;;;;;4148474;28;20112;-67
2023/12/22 03:27:39;;;;;;;41.13;38.73;;;;;;;;;;4148079;28;20050;-66
2023/12/22 03:29:40;;;;;;;42.75;39.90;;;;;;;;;;4146383;28;20708;-66
2023/12/22 03:31:42;;;;;;;41.78;39.45;;;;;;;;;;4148328;28;20125;-66
2023/12/22 03:33:43;;;;;;;42.13;39.37;;;;;;;;;;4137789;28;20046;-66
2023/12/22 03:35:45;;;;;;;39.97;37.65;;;;;;;;;;4132132;28;20046;-66
2023/12/22 03:37:47;;;;;;;45.20;42.15;;;;;;;;;;4131997;28;20125;-66
2023/12/22 03:39:49;;;;;;;40.17;37.95;;;;;;;;;;4141494;28;20049;-66
2023/12/22 03:41:50;;;;;;;40.97;38.60;;;;;;;;;;4148351;28;20034;-66
2023/12/22 03:43:52;;;;;;;42.15;39.60;;;;;;;;;;4148235;28;20038;-66
2023/12/22 03:45:54;;;;;;;43.38;40.42;;;;;;;;;;4130711;28;20498;-66
2023/12/22 03:47:55;;;;;;;43.10;40.60;;;;;;;;;;4143005;28;20129;-66
2023/12/22 03:49:57;;;;;;;44.53;41.70;;;;;;;;;;4132013;28;20057;-66
2023/12/22 03:51:58;;;;;;;43.60;40.40;;;;;;;;;;4136438;28;20050;-66
2023/12/22 03:54:00;;;;;;;44.17;41.20;;;;;;;;;;4148092;28;20380;-67
2023/12/22 03:56:02;;;;;;;44.00;40.83;;;;;;;;;;4148001;28;20050;-66
2023/12/22 03:58:04;;;;;;;43.78;41.20;;;;;;;;;;4148004;28;20048;-66
2023/12/22 04:00:06;;;;;;;44.83;41.67;;;;;;;;;;4147887;28;20152;-66
2023/12/22 04:02:08;;;;;;;43.50;40.75;;;;;;;;;;4147647;28;20117;-67
2023/12/22 04:04:09;;;;;;;43.42;40.88;;;;;;;;;;4148038;28;20488;-67
2023/12/22 04:06:11;;;;;;;43.42;40.38;;;;;;;;;;4147915;28;20038;-66
2023/12/22 04:08:13;;;;;;;43.97;41.50;;;;;;;;;;4150425;28;20037;-66
2023/12/22 04:10:16;;;;;;;42.13;39.33;;;;;;;;;;4151822;28;20125;-66
2023/12/22 04:12:18;;;;;;;46.42;43.28;;;;;;;;;;4147506;28;20050;-67
2023/12/22 04:14:19;;;;;;;43.75;41.33;;;;;;;;;;4147902;28;20092;-66
2023/12/22 04:16:21;;;;;;;47.03;43.88;;;;;;;;;;4147825;28;20120;-66
2023/12/22 04:18:22;;;;;;;45.53;42.78;;;;;;;;;;4147874;28;20387;-66
2023/12/22 04:20:24;;;;;;;42.45;40.05;;;;;;;;;;4147589;28;20045;-66
2023/12/22 04:22:26;;;;;;;44.50;41.63;;;;;;;;;;4148056;28;20038;-64
2023/12/22 04:24:27;;;;;;;43.88;40.92;;;;;;;;;;4147580;28;20308;-63
2023/12/22 04:26:29;;;;;;;40.28;37.65;;;;;;;;;;4147510;28;20480;-64
2023/12/22 04:28:30;;;;;;;42.40;39.45;;;;;;;;;;4147879;28;20089;-64
2023/12/22 04:30:32;;;;;;;44.10;41.65;;;;;;;;;;4147618;28;20502;-64
2023/12/22 04:32:57;;;;;;;42.58;39.88;;;;;;;;;;4147580;28;20084;-64
2023/12/22 04:34:59;;;;;;;44.25;41.53;;;;;;;;;;4147642;28;20038;-64
2023/12/22 04:37:01;;;;;;;43.17;40.35;;;;;;;;;;4147721;28;20101;-63
2023/12/22 04:39:03;;;;;;;44.78;41.88;;;;;;;;;;4147870;28;20058;-64
2023/12/22 04:41:04;;;;;;;40.80;38.17;;;;;;;;;;4147491;28;20042;-64
2023/12/22 04:43:06;;;;;;;41.90;38.90;;;;;;;;;;4130120;28;20081;-64
2023/12/22 04:45:07;;;;;;;40.53;37.90;;;;;;;;;;4147456;28;20399;-64
2023/12/22 04:47:09;;;;;;;43.37;40.63;;;;;;;;;;4147869;28;20088;-64
2023/12/22 04:49:11;;;;;;;41.93;39.37;;;;;;;;;;4130195;28;20042;-64
2023/12/22 04:51:13;;;;;;;41.80;39.13;;;;;;;;;;4147220;28;20409;-64
2023/12/22 04:53:14;;;;;;;43.90;40.73;;;;;;;;;;4130133;28;20046;-64
2023/12/22 04:55:16;;;;;;;42.78;39.75;;;;;;;;;;4147462;28;20076;-63
2023/12/22 04:57:18;;;;;;;41.50;39.03;;;;;;;;;;4147563;28;20053;-63
2023/12/22 04:59:19;;;;;;;44.42;41.03;;;;;;;;;;4147393;28;20395;-64
2023/12/22 05:01:21;;;;;;;40.55;37.55;;;;;;;;;;4147116;28;20405;-64
2023/12/22 05:03:22;;;;;;;42.20;39.22;;;;;;;;;;4147276;28;20053;-64
2023/12/22 05:05:24;;;;;;;39.38;37.03;;;;;;;;;;4145789;28;20449;-63
2023/12/22 05:07:27;;;;;;;45.07;42.37;;;;;;;;;;4147526;28;20141;-64
2023/12/22 05:09:29;;;;;;;42.25;39.22;;;;;;;;;;4159899;28;20088;-63
2023/12/22 05:11:30;;;;;;;42.95;40.03;;;;;;;;;;4163771;28;20037;-63
2023/12/22 05:13:32;;;;;;;42.53;39.88;;;;;;;;;;4163571;28;20070;-65
2023/12/22 05:15:35;;;;;;;45.33;42.05;;;;;;;;;;4163664;28;20091;-64
2023/12/22 05:17:36;;;;;;;44.00;40.78;;;;;;;;;;4163727;28;20072;-64
2023/12/22 05:19:38;;;;;;;42.57;40.07;;;;;;;;;;4138828;28;20516;-64
2023/12/22 05:21:39;;;;;;;42.35;39.38;;;;;;;;;;4137352;28;20042;-64
2023/12/22 05:23:41;;;;;;;40.97;37.55;;;;;;;;;;4150413;28;20034;-63
2023/12/22 05:25:43;;;;;;;44.57;41.07;;;;;;;;;;4150317;28;20414;-64
2023/12/22 05:27:45;;;;;;;43.37;40.37;;;;;;;;;;4150349;28;20312;-64
2023/12/22 05:29:47;;;;;;;44.83;42.03;;;;;;;;;;4150316;28;20498;-64
2023/12/22 05:31:49;;;;;;;48.53;45.10;;;;;;;;;;4150261;28;20697;-64
2023/12/22 05:33:51;;;;;;;46.67;42.58;;;;;;;;;;4150453;28;20046;-67
2023/12/22 05:35:52;;;;;;;45.15;42.17;;;;;;;;;;4150181;28;20133;-67
2023/12/22 05:37:54;;;;;;;48.75;45.47;;;;;;;;;;4150156;28;20045;-67
2023/12/22 05:39:56;;;;;;;43.50;40.67;;;;;;;;;;4149823;28;20451;-66
2023/12/22 05:41:57;;;;;;;44.63;41.53;;;;;;;;;;4149462;28;20053;-66
2023/12/22 05:43:59;;;;;;;44.17;41.17;;;;;;;;;;4150028;28;20045;-66
2023/12/22 05:46:01;;;;;;;47.23;43.83;;;;;;;;;;4134138;28;20293;-67
2023/12/22 05:48:02;;;;;;;43.53;40.67;;;;;;;;;;4133847;28;20281;-67
2023/12/22 05:50:04;;;;;;;41.55;38.35;;;;;;;;;;4133976;28;20042;-66
2023/12/22 05:52:06;;;;;;;45.33;41.92;;;;;;;;;;4140617;28;20456;-66
2023/12/22 05:54:08;;;;;;;43.35;40.45;;;;;;;;;;4166198;28;20448;-66
2023/12/22 05:56:17;;;;;;;45.95;42.83;;;;;;;;;;4166345;28;20041;-66
2023/12/22 05:58:19;;;;;;;43.47;40.53;;;;;;;;;;4166262;28;20124;-66
2023/12/22 06:00:21;;;;;;;42.80;39.80;;;;;;;;;;4166147;28;20045;-66
2023/12/22 06:02:23;;;;;;;44.22;41.22;;;;;;;;;;4156583;28;20124;-66
2023/12/22 06:04:24;;;;;;;45.80;42.70;;;;;;;;;;4149731;28;20413;-67
2023/12/22 06:06:27;;;;;;;45.83;42.70;;;;;;;;;;4132623;28;20502;-66
2023/12/22 06:08:29;;;;;;;45.80;42.45;;;;;;;;;;4154033;28;20030;-67
2023/12/22 06:10:31;;;;;;;48.15;44.28;;;;;;;;;;4145008;28;20459;-67
2023/12/22 06:12:32;;;;;;;46.15;42.53;;;;;;;;;;4144506;28;20144;-67
2023/12/22 06:14:34;;;;;;;45.83;42.63;;;;;;;;;;4149373;28;20048;-62
2023/12/22 06:16:36;;;;;;;44.80;41.78;;;;;;;;;;4131996;28;20081;-63
2023/12/22 06:18:38;;;;;;;44.90;42.10;;;;;;;;;;4149263;28;20053;-63
2023/12/22 06:20:40;;;;;;;44.27;40.03;;;;;;;;;;4149210;28;20461;-62
2023/12/22 06:22:42;;;;;;;46.23;42.80;;;;;;;;;;4149430;28;20042;-63
2023/12/22 06:24:44;;;;;;;;;;;;;;;;;;4149770;28;20113;-63
2023/12/22 06:26:46;;;;;;;44.78;41.05;;;;;;;;;;4149431;28;19925;-63
2023/12/22 06:28:47;;;;;;;44.47;41.17;;;;;;;;;;4149467;28;20034;-62
2023/12/22 06:30:49;;;;;;;48.70;44.83;;;;;;;;;;4149288;28;20129;-62
2023/12/22 06:32:51;;;;;;;45.85;42.55;;;;;;;;;;4149433;28;20038;-63
2023/12/22 06:34:53;;;;;;;50.58;46.50;;;;;;;;;;4148404;28;20484;-63
2023/12/22 06:36:55;;;;;;;52.13;48.37;;;;;;;;;;4149256;28;20041;-63
2023/12/22 06:38:57;;;;;;;46.15;42.60;;;;;;;;;;4147782;28;20050;-63
2023/12/22 06:40:59;;;;;;;45.00;41.40;;;;;;;;;;4149145;28;20057;-63
2023/12/22 06:43:01;;;;;;;44.20;41.38;;;;;;;;;;4150223;28;20069;-63
2023/12/22 06:45:03;;;;;;;42.75;39.15;;;;;;;;;;4149397;28;20409;-60
2023/12/22 06:47:05;;;;;;;46.87;43.40;;;;;;;;;;4149235;28;20462;-60
2023/12/22 06:49:07;;;;;;;43.60;40.28;;;;;;;;;;4149292;28;20052;-60
2023/12/22 06:51:16;;;;;;;46.60;43.17;;;;;;;;;;4148909;28;20096;-60
2023/12/22 06:53:18;;;;;;;48.15;43.83;;;;;;;;;;4161868;28;20111;-60
2023/12/22 06:55:27;;;;;;;48.00;44.75;;;;;;;;;;4165101;28;20041;-60
2023/12/22 06:57:28;;;;;;;50.38;46.55;;;;;;;;;;4164708;28;20168;-60
2023/12/22 06:59:31;;;;;;;48.03;44.30;;;;;;;;;;4144528;28;20041;-60
2023/12/22 07:01:34;;;;;;;49.10;45.45;;;;;;;;;;4148426;28;20540;-61
2023/12/22 07:03:38;;;;;;;44.92;41.40;;;;;;;;;;4148677;28;20108;-60
2023/12/22 07:05:40;;;;;;;;;;;;;;;;;;4149500;28;20548;-60
2023/12/22 07:07:41;;;;;;;47.30;43.25;;;;;;;;;;4148633;28;20004;-60
2023/12/22 07:09:43;;;;;;;44.70;41.53;;;;;;;;;;4163188;28;20040;-60
2023/12/22 07:11:49;;;;;;;43.30;40.53;;;;;;;;;;4164975;28;20103;-60
2023/12/22 07:13:51;;;;;;;43.60;40.40;;;;;;;;;;4165178;28;20072;-61
2023/12/22 07:15:53;;;;;;;47.37;43.83;;;;;;;;;;4164947;28;20056;-59
2023/12/22 07:17:56;;;;;;;47.28;44.05;;;;;;;;;;4164827;28;20053;-60
2023/12/22 07:19:57;;;;;;;46.03;42.25;;;;;;;;;;4164856;28;20439;-60
2023/12/22 07:22:02;;;;;;;48.42;44.83;;;;;;;;;;4164778;28;20050;-60
2023/12/22 07:24:04;;;;;;;46.58;43.38;;;;;;;;;;4164765;28;20409;-60
2023/12/22 07:26:05;;;;;;;45.13;41.60;;;;;;;;;;4152467;28;20046;-60
2023/12/22 07:28:07;;;;;;;44.90;41.42;;;;;;;;;;4146142;28;20109;-61
2023/12/22 07:30:11;;;;;;;44.08;40.35;;;;;;;;;;4146692;28;20072;-60
2023/12/22 07:32:13;;;;;;;46.55;42.90;;;;;;;;;;4146846;28;20049;-60
2023/12/22 07:34:17;;;;;;;46.60;43.67;;;;;;;;;;4146885;28;20052;-60
2023/12/22 07:36:18;;;;;;;45.22;42.25;;;;;;;;;;4143654;28;20037;-59
2023/12/22 07:38:23;;;;;;;43.78;40.90;;;;;;;;;;4145635;28;20096;-60
2023/12/22 07:40:25;;;;;;;43.60;40.50;;;;;;;;;;4145412;28;20395;-60
2023/12/22 07:42:27;;;;;;;46.08;42.88;;;;;;;;;;4131967;28;20053;-60
2023/12/22 07:44:29;;;;;;;52.83;48.30;;;;;;;;;;4142617;28;20410;-60
2023/12/22 07:46:32;;;;;;;57.50;52.40;;;;;;;;;;4147112;28;20417;-61
2023/12/22 07:48:33;;;;;;;56.47;51.40;;;;;;;;;;4147864;28;20038;-60
2023/12/22 07:50:36;;;;;;;53.40;48.97;;;;;;;;;;4147775;28;20516;-60
2023/12/22 07:52:38;;;;;;;55.92;51.22;;;;;;;;;;4155850;28;20086;-60
2023/12/22 07:54:42;;;;;;;54.65;49.80;;;;;;;;;;4156479;28;20042;-60
2023/12/22 07:56:43;;;;;;;51.13;47.07;;;;;;;;;;4143056;28;20076;-60
2023/12/22 07:58:45;;;;;;;47.55;43.80;;;;;;;;;;4144076;28;20045;-60
2023/12/22 08:00:47;;;;;;;48.00;44.38;;;;;;;;;;4146863;28;20054;-60
2023/12/22 08:02:48;;;;;;;51.35;47.42;;;;;;;;;;4146963;28;20477;-60
2023/12/22 08:04:50;;;;;;;48.35;44.38;;;;;;;;;;4146708;28;20125;-60
2023/12/22 08:06:52;;;;;;;52.43;48.23;;;;;;;;;;4145107;28;20038;-60
2023/12/22 08:08:54;;;;;;;53.58;48.60;;;;;;;;;;4153649;28;20460;-60
2023/12/22 08:10:56;;;;;;;58.08;52.90;;;;;;;;;;4163648;28;20045;-60
2023/12/22 08:12:58;;;;;;;52.23;47.90;;;;;;;;;;4164043;28;20096;-60
2023/12/22 08:14:59;;;;;;;46.08;42.55;;;;;;;;;;4164441;28;20387;-60
2023/12/22 08:17:01;;;;;;;47.22;43.63;;;;;;;;;;4163892;28;20132;-60
2023/12/22 08:19:02;;;;;;;46.33;42.23;;;;;;;;;;4164349;28;20037;-60
2023/12/22 08:21:06;;;;;;;45.23;42.17;;;;;;;;;;4143322;28;20392;-61
2023/12/22 08:23:21;;;;;;;46.88;43.78;;;;;;;;;;4142756;28;20038;-60
2023/12/22 08:25:24;;;;;;;48.75;45.33;;;;;;;;;;4143786;28;20076;-60
2023/12/22 08:27:27;;;;;;;49.97;46.13;;;;;;;;;;4145499;28;20049;-60
2023/12/22 08:29:28;;;;;;;46.50;42.63;;;;;;;;;;4140123;28;20455;-60
2023/12/22 08:31:30;;;;;;;46.22;42.83;;;;;;;;;;4145296;28;20034;-60
2023/12/22 08:33:31;;;;;;;43.13;40.17;;;;;;;;;;4146943;28;20037;-60
2023/12/22 08:35:34;;;;;;;45.63;42.33;;;;;;;;;;4147623;28;20058;-61
2023/12/22 08:37:37;;;;;;;45.63;42.15;;;;;;;;;;4145209;28;20505;-60
2023/12/22 08:39:39;;;;;;;53.67;48.95;;;;;;;;;;4147025;28;20038;-60
2023/12/22 08:41:41;;;;;;;59.53;54.20;;;;;;;;;;4146081;28;20070;-60
2023/12/22 08:43:43;;;;;;;52.38;47.92;;;;;;;;;;4146348;28;20041;-60
2023/12/22 08:45:44;;;;;;;37.58;34.75;;;;;;;;;;4144999;28;20441;-60
2023/12/22 08:47:46;;;;;;;40.50;37.92;;;;;;;;;;4146926;28;20050;-61
2023/12/22 08:49:48;;;;;;;42.10;38.88;;;;;;;;;;4146440;28;20034;-61
2023/12/22 08:51:50;;;;;;;41.92;38.83;;;;;;;;;;4148719;28;20132;-61
2023/12/22 08:53:54;;;;;;;54.75;49.97;;;;;;;;;;4148001;28;20038;-60
2023/12/22 08:55:56;;;;;;;52.10;47.38;;;;;;;;;;4145791;28;20096;-60
2023/12/22 08:57:58;;;;;;;40.80;38.00;;;;;;;;;;4149865;28;20096;-60
2023/12/22 09:00:04;;;;;;;38.42;36.08;;;;;;;;;;4148381;28;20049;-60
2023/12/22 09:02:06;;;;;;;41.85;38.60;;;;;;;;;;4148882;28;20038;-60
2023/12/22 09:04:09;;;;;;;38.53;35.55;;;;;;;;;;4150173;28;20050;-60
2023/12/22 09:06:13;;;;;;;37.38;35.00;;;;;;;;;;4149712;28;20054;-60
2023/12/22 09:08:14;;;;;;;37.08;34.58;;;;;;;;;;4153030;28;20073;-60
2023/12/22 09:10:16;;;;;;;40.03;36.87;;;;;;;;;;4163499;28;20124;-60
2023/12/22 09:12:18;;;;;;;37.43;34.97;;;;;;;;;;4149948;28;20518;-60
2023/12/22 09:14:20;;;;;;;36.35;33.67;;;;;;;;;;4148630;28;20104;-60
2023/12/22 09:16:22;;;;;;;;;;;;;;;;;;4150136;28;20571;-60
2023/12/22 09:18:23;;;;;;;34.17;31.70;;;;;;;;;;4149067;28;19976;-60
2023/12/22 09:20:25;;;;;;;37.50;34.20;;;;;;;;;;4149490;28;20038;-60
2023/12/22 09:22:27;;;;;;;33.97;31.43;;;;;;;;;;4150356;28;20648;-60
2023/12/22 09:24:28;;;;;;;35.83;33.40;;;;;;;;;;4132756;28;20109;-60
2023/12/22 09:26:30;;;;;;;35.63;33.07;;;;;;;;;;4150391;28;20046;-61
2023/12/22 09:28:32;;;;;;;34.97;32.53;;;;;;;;;;4133111;28;20038;-61
2023/12/22 09:30:33;;;;;;;37.70;34.78;;;;;;;;;;4149394;28;20287;-60
2023/12/22 09:32:35;;;;;;;34.27;31.60;;;;;;;;;;4150035;28;20452;-61
2023/12/22 09:34:37;;;;;;;35.20;32.60;;;;;;;;;;4147887;28;20042;-60
2023/12/22 09:36:39;;;;;;;33.22;30.50;;;;;;;;;;4146178;28;20080;-60
2023/12/22 09:38:41;;;;;;;33.83;31.27;;;;;;;;;;4145111;28;20046;-60
2023/12/22 09:40:43;;;;;;;36.67;34.17;;;;;;;;;;4146055;28;20141;-60
2023/12/22 09:42:46;;;;;;;35.50;33.00;;;;;;;;;;4146300;28;20052;-60
2023/12/22 09:44:48;;;;;;;34.25;32.38;;;;;;;;;;4148482;28;20795;-60
2023/12/22 09:46:52;;;;;;;34.92;32.58;;;;;;;;;;4149180;28;20030;-60
2023/12/22 09:48:54;;;;;;;34.40;32.25;;;;;;;;;;4148680;28;20049;-60
2023/12/22 09:50:56;;;;;;;32.53;30.48;;;;;;;;;;4148425;28;20033;-61
2023/12/22 09:52:57;;;;;;;30.93;28.87;;;;;;;;;;4159239;28;20041;-59
2023/12/22 09:55:00;;;;;;;34.83;32.40;;;;;;;;;;4148372;28;20107;-61
2023/12/22 09:57:02;;;;;;;33.25;30.65;;;;;;;;;;4148476;28;20046;-61
2023/12/22 09:59:21;;;;;;;34.08;31.60;;;;;;;;;;4149095;28;20049;-60
2023/12/22 10:01:23;;;;;;;29.77;27.90;;;;;;;;;;4149497;28;20050;-60
2023/12/22 10:03:25;;;;;;;25.23;23.02;;;;;;;;;;4148452;28;20274;-61
2023/12/22 10:05:27;;;;;;;26.40;24.42;;;;;;;;;;4148909;28;20065;-61
2023/12/22 10:07:30;;;;;;;25.92;23.38;;;;;;;;;;4149944;28;20413;-61
2023/12/22 10:09:31;;;;;;;27.48;25.67;;;;;;;;;;4147868;28;20088;-61
2023/12/22 10:11:34;;;;;;;25.63;24.05;;;;;;;;;;4149119;28;20069;-61
2023/12/22 10:13:35;;;;;;;;;;;;;;;;;;4148536;28;20125;-61
2023/12/22 10:15:43;;;;;;;21.55;19.88;;;;;;;;;;4148078;28;19936;-61
2023/12/22 10:17:44;;;;;;;21.38;19.52;;;;;;;;;;4148879;28;20045;-61
2023/12/22 10:19:46;;;;;;;14.07;13.23;;;;;;;;;;4149487;28;20037;-61
2023/12/22 10:21:51;;;;;;;16.40;14.67;;;;;;;;;;4149265;28;20041;-61
2023/12/22 10:23:52;;;;;;;16.48;15.15;;;;;;;;;;4149771;28;20136;-61
2023/12/22 10:25:55;;;;;;;13.80;12.77;;;;;;;;;;4148896;28;20057;-62
2023/12/22 10:27:58;;;;;;;13.23;12.13;;;;;;;;;;4147328;28;20096;-61
2023/12/22 10:29:59;;;;;;;17.50;12.48;;;;;;;;;;4146941;28;20121;-61
2023/12/22 10:32:02;;;;;;;18.10;13.90;;;;;;;;;;4149328;28;20081;-61
2023/12/22 10:34:08;;;;;;;13.48;11.35;;;;;;;;;;4147158;28;20453;-61
2023/12/22 10:36:10;;;;;;;11.37;10.30;;;;;;;;;;4148322;28;20052;-62
2023/12/22 10:38:11;;;;;;;12.35;11.27;;;;;;;;;;4145499;28;20775;-61
2023/12/22 10:40:13;;;;;;;17.37;9.60;;;;;;;;;;4148798;28;20403;-61
2023/12/22 10:42:15;;;;;;;12.27;10.85;;;;;;;;;;4141923;28;20096;-61
2023/12/22 10:44:17;;;;;;;16.10;14.68;;;;;;;;;;4148760;28;20041;-61
2023/12/22 10:46:19;;;;;;;14.68;9.95;;;;;;;;;;4148321;28;20125;-60
2023/12/22 10:48:21;;;;;;;14.13;12.93;;;;;;;;;;4137654;28;20134;-61
2023/12/22 10:50:24;;;;;;;15.32;13.82;;;;;;;;;;4136590;28;20089;-61
2023/12/22 10:52:26;;;;;;;14.73;13.48;;;;;;;;;;4153800;28;20091;-61
2023/12/22 10:54:29;;;;;;;17.45;16.50;;;;;;;;;;4149290;28;20060;-61
2023/12/22 10:56:31;;;;;;;20.98;19.33;;;;;;;;;;4147481;28;20466;-61
2023/12/22 10:58:33;;;;;;;21.08;19.27;;;;;;;;;;4143310;28;20438;-61
2023/12/22 11:00:37;;;;;;;21.05;19.70;;;;;;;;;;4146600;28;20041;-61
2023/12/22 11:02:41;;;;;;;19.00;17.90;;;;;;;;;;4146110;28;20065;-61
2023/12/22 11:04:47;;;;;;;20.35;19.08;;;;;;;;;;4144837;28;20046;-61
2023/12/22 11:06:49;;;;;;;19.73;18.48;;;;;;;;;;4145866;28;20040;-62
2023/12/22 11:08:52;;;;;;;21.60;19.95;;;;;;;;;;4150110;28;20034;-61
2023/12/22 11:10:57;;;;;;;20.50;18.55;;;;;;;;;;4147512;28;20056;-61
2023/12/22 11:12:59;;;;;;;17.45;16.33;;;;;;;;;;4143444;28;20321;-61
2023/12/22 11:15:03;;;;;;;18.50;16.73;;;;;;;;;;4140915;28;20104;-60
2023/12/22 11:17:05;;;;;;;16.38;15.43;;;;;;;;;;4139113;28;20104;-61
2023/12/22 11:19:07;;;;;;;17.17;15.70;;;;;;;;;;4143460;28;20502;-60
2023/12/22 11:21:09;;;;;;;;;;;;;;;;;;4141077;28;20054;-62
2023/12/22 11:23:12;;;;;;;18.38;16.88;;;;;;;;;;4142552;28;19927;-61
2023/12/22 11:25:15;;;;;;;21.13;19.55;;;;;;;;;;4148114;28;20557;-61
2023/12/22 11:27:19;;;;;;;18.65;16.92;;;;;;;;;;4139957;28;20046;-62
2023/12/22 11:29:23;;;;;;;17.25;15.07;;;;;;;;;;4141561;28;20435;-61
2023/12/22 11:31:31;;;;;;;20.80;16.23;;;;;;;;;;4132377;28;20042;-61
2023/12/22 11:33:34;;;;;;;16.10;14.30;;;;;;;;;;4132461;28;20070;-62
2023/12/22 11:35:36;;;;;;;15.75;14.73;;;;;;;;;;4133390;28;20042;-61
2023/12/22 11:37:39;;;;;;;15.10;14.10;;;;;;;;;;4132232;28;20092;-61
2023/12/22 11:39:40;;;;;;;;;;;;;;;;;;4140326;28;20065;-61
2023/12/22 11:41:42;;;;;;;18.48;15.77;;;;;;;;;;4144160;28;20288;-61
2023/12/22 11:43:45;;;;;;;16.83;15.38;;;;;;;;;;4131954;28;20082;-62
2023/12/22 11:45:46;;;;;;;;;;;;;;;;;;4137692;28;20046;-60
2023/12/22 11:47:48;;;;;;;17.63;16.17;;;;;;;;;;4144612;28;19926;-61
2023/12/22 11:49:50;;;;;;;20.02;18.27;;;;;;;;;;4127167;28;20097;-60
2023/12/22 11:51:52;;;;;;;15.38;14.45;;;;;;;;;;4143806;28;20406;-60
2023/12/22 11:53:54;;;;;;;21.00;19.50;;;;;;;;;;4142359;28;20486;-61